Time;durP1;ratioP1;P1;durP2;ratioP2;P2;SDS_P1;SDS_P2;PMS_P1;PMS_P2;Temp;Humidity;BMP_temperature;BMP_pressure;BME280_temperature;BME280_humidity;BME280_pressure;Samples;Min_cycle;Max_cycle;Signal;HPM_P1;HPM_P2
2022/07/15 00:01:13;;;;;;;2.80;0.60;;;15.10;91.70;;;;;;4200591;28;20214;-76
2022/07/15 00:03:15;;;;;;;0.87;0.50;;;15.00;91.80;;;;;;4218226;28;20243;-77
2022/07/15 00:05:18;;;;;;;1.37;0.70;;;15.00;91.40;;;;;;4218086;28;20198;-76
2022/07/15 00:07:21;;;;;;;3.73;0.60;;;15.00;92.20;;;;;;4214642;28;20210;-76
2022/07/15 00:10:13;;;;;;;2.07;0.70;;;14.90;93.80;;;;;;4219448;28;20239;-78
2022/07/15 00:11:45;;;;;;;1.27;0.60;;;14.90;94.00;;;;;;4221157;28;20278;-78
2022/07/15 00:13:46;;;;;;;0.77;0.50;;;14.90;94.10;;;;;;4219411;28;20209;-76
2022/07/15 00:15:48;;;;;;;1.13;0.60;;;14.90;94.20;;;;;;4226383;28;20560;-77
2022/07/15 00:17:51;;;;;;;2.17;0.50;;;14.90;93.70;;;;;;4219106;28;20316;-78
2022/07/15 00:19:53;;;;;;;1.33;0.70;;;14.90;93.80;;;;;;4201166;28;20216;-76
2022/07/15 00:21:55;;;;;;;1.80;0.80;;;14.80;93.80;;;;;;4217105;28;20289;-77
2022/07/15 00:23:59;;;;;;;2.37;0.83;;;14.80;93.80;;;;;;4215818;28;20228;-78
2022/07/15 00:26:01;;;;;;;1.33;0.70;;;14.80;95.10;;;;;;4215173;28;20200;-76
2022/07/15 00:28:04;;;;;;;2.37;0.70;;;14.80;95.10;;;;;;4210708;28;20252;-76
2022/07/15 00:30:08;;;;;;;2.13;0.80;;;14.70;95.70;;;;;;4219602;28;20197;-76
2022/07/15 00:32:10;;;;;;;0.97;0.50;;;14.80;95.90;;;;;;4218875;28;20695;-77
2022/07/15 00:34:12;;;;;;;2.40;0.63;;;14.70;95.70;;;;;;4222361;28;20207;-76
2022/07/15 00:36:13;;;;;;;1.47;0.73;;;14.70;97.00;;;;;;4220316;28;20743;-78
2022/07/15 00:38:16;;;;;;;0.80;0.60;;;14.70;97.20;;;;;;4220523;28;20224;-76
2022/07/15 00:40:19;;;;;;;1.17;0.80;;;14.70;96.50;;;;;;4220051;28;20213;-78
2022/07/15 00:44:37;;;;;;;0.90;0.63;;;14.60;96.70;;;;;;4219362;28;20607;-76
2022/07/15 00:46:40;;;;;;;0.80;0.60;;;14.60;97.40;;;;;;4220978;28;20265;-78
2022/07/15 00:48:42;;;;;;;1.63;0.97;;;14.60;97.10;;;;;;4213091;28;20238;-76
2022/07/15 00:50:43;;;;;;;1.33;0.70;;;14.60;97.30;;;;;;4211339;28;20242;-76
2022/07/15 00:52:48;;;;;;;1.37;0.67;;;14.60;98.50;;;;;;4218999;28;20296;-77
2022/07/15 00:54:53;;;;;;;1.43;0.77;;;14.50;99.10;;;;;;4213480;28;20307;-77
2022/07/15 00:56:57;;;;;;;1.30;0.67;;;14.50;98.60;;;;;;4216784;28;20741;-76
2022/07/15 00:59:01;;;;;;;1.27;0.70;;;14.50;98.80;;;;;;4218577;28;20231;-77
2022/07/15 01:01:03;;;;;;;3.70;0.70;;;14.50;98.80;;;;;;4223368;28;20205;-76
2022/07/15 01:03:07;;;;;;;1.30;0.80;;;14.50;98.80;;;;;;4220378;28;20299;-77
2022/07/15 01:05:11;;;;;;;2.67;0.70;;;14.50;99.90;;;;;;4220509;28;20296;-76
2022/07/15 01:07:14;;;;;;;2.50;0.70;;;14.40;99.90;;;;;;4217255;28;20209;-77
2022/07/15 01:09:16;;;;;;;0.77;0.50;;;14.40;99.90;;;;;;4220027;28;20209;-76
2022/07/15 01:11:17;;;;;;;2.20;0.80;;;14.40;99.90;;;;;;4220115;28;20213;-77
2022/07/15 01:13:21;;;;;;;1.53;0.70;;;14.30;99.90;;;;;;4217174;28;20208;-76
2022/07/15 01:15:24;;;;;;;2.37;0.67;;;14.30;99.90;;;;;;4216636;28;20263;-76
2022/07/15 01:17:26;;;;;;;1.07;0.60;;;14.30;99.90;;;;;;4218654;28;20219;-76
2022/07/15 01:19:28;;;;;;;0.70;0.60;;;14.20;99.90;;;;;;4218521;28;20211;-76
2022/07/15 01:21:31;;;;;;;1.27;0.70;;;14.20;99.90;;;;;;4218650;28;20215;-76
2022/07/15 01:23:33;;;;;;;2.00;0.70;;;14.20;99.90;;;;;;4215646;28;20605;-77
2022/07/15 01:25:35;;;;;;;2.53;0.70;;;14.10;99.90;;;;;;4220493;28;20201;-76
2022/07/15 01:27:37;;;;;;;0.63;0.60;;;14.10;99.90;;;;;;4222909;28;20225;-76
2022/07/15 01:29:39;;;;;;;0.60;0.50;;;14.10;99.90;;;;;;4218499;28;20592;-79
2022/07/15 01:31:41;;;;;;;0.93;0.60;;;14.10;99.90;;;;;;4220665;28;20689;-77
2022/07/15 01:33:43;;;;;;;2.53;0.70;;;14.00;99.90;;;;;;4217741;28;20228;-78
2022/07/15 01:35:45;;;;;;;1.47;0.70;;;14.00;99.90;;;;;;4218436;28;20319;-76
2022/07/15 01:37:48;;;;;;;1.97;0.70;;;14.00;99.90;;;;;;4218047;28;20229;-76
2022/07/15 01:39:50;;;;;;;3.00;0.70;;;14.00;99.90;;;;;;4217892;28;20532;-76
2022/07/15 01:41:52;;;;;;;3.13;0.70;;;14.00;99.90;;;;;;4214100;28;20650;-78
2022/07/15 01:43:54;;;;;;;0.80;0.60;;;14.00;99.90;;;;;;4210779;28;20721;-78
2022/07/15 01:45:55;;;;;;;2.27;0.60;;;13.90;99.90;;;;;;4213359;28;20219;-77
2022/07/15 01:47:57;;;;;;;1.40;0.77;;;13.90;99.90;;;;;;4213558;28;20241;-76
2022/07/15 01:49:58;;;;;;;3.00;0.93;;;13.90;99.90;;;;;;4212863;28;20201;-77
2022/07/15 01:52:02;;;;;;;2.13;0.80;;;13.90;99.90;;;;;;4220853;28;20231;-77
2022/07/15 01:54:05;;;;;;;1.13;0.90;;;13.90;99.90;;;;;;4213677;28;20284;-76
2022/07/15 01:56:08;;;;;;;2.10;0.90;;;13.90;99.90;;;;;;4212596;28;20330;-77
2022/07/15 01:58:10;;;;;;;2.27;1.20;;;13.80;99.90;;;;;;4219040;28;20247;-76
2022/07/15 02:00:16;;;;;;;1.40;0.83;;;13.80;99.90;;;;;;4214283;28;20227;-75
2022/07/15 02:02:18;;;;;;;1.90;0.80;;;13.80;99.90;;;;;;4215960;28;20254;-77
2022/07/15 02:04:21;;;;;;;2.73;1.00;;;13.80;99.90;;;;;;4215208;28;20327;-76
2022/07/15 02:06:23;;;;;;;3.50;1.10;;;13.80;99.90;;;;;;4215510;28;20223;-77
2022/07/15 02:08:24;;;;;;;2.53;0.90;;;13.80;99.90;;;;;;4215713;28;20244;-79
2022/07/15 02:10:39;;;;;;;1.23;0.70;;;13.80;99.90;;;;;;4215158;28;20215;-78
2022/07/15 02:12:41;;;;;;;2.30;1.00;;;13.70;99.90;;;;;;4218374;28;20216;-78
2022/07/15 02:14:42;;;;;;;1.60;0.90;;;13.70;99.90;;;;;;4212689;28;20311;-79
2022/07/15 02:16:44;;;;;;;1.97;0.80;;;13.70;99.90;;;;;;4217656;28;20230;-76
2022/07/15 02:18:46;;;;;;;1.53;0.83;;;13.70;99.90;;;;;;4216145;28;20229;-76
2022/07/15 02:20:48;;;;;;;2.97;1.03;;;13.70;99.90;;;;;;4217562;28;20709;-76
2022/07/15 02:22:50;;;;;;;1.40;0.80;;;13.60;99.90;;;;;;4209093;28;20209;-78
2022/07/15 02:24:52;;;;;;;2.17;1.00;;;13.60;99.90;;;;;;4222446;28;20209;-76
2022/07/15 02:26:55;;;;;;;1.07;0.70;;;13.60;99.90;;;;;;4212073;28;20200;-81
2022/07/15 02:28:57;;;;;;;3.47;1.10;;;13.60;99.90;;;;;;4217048;28;20239;-77
2022/07/15 02:30:59;;;;;;;3.70;1.10;;;13.60;99.90;;;;;;4210121;28;20204;-78
2022/07/15 02:33:02;;;;;;;2.50;0.90;;;13.60;99.90;;;;;;4214118;28;20313;-78
2022/07/15 02:35:04;;;;;;;6.50;1.00;;;13.60;99.90;;;;;;4212436;28;20212;-76
2022/07/15 02:37:06;;;;;;;1.70;1.00;;;13.60;99.90;;;;;;4214400;28;20240;-76
2022/07/15 02:39:08;;;;;;;2.77;1.17;;;13.60;99.90;;;;;;4215953;28;20319;-76
2022/07/15 02:41:12;;;;;;;1.57;1.00;;;13.50;99.90;;;;;;4215300;28;20239;-76
2022/07/15 02:43:16;;;;;;;1.53;1.00;;;13.50;99.90;;;;;;4213934;28;20216;-75
2022/07/15 02:45:18;;;;;;;2.67;1.00;;;13.50;99.90;;;;;;4213894;28;20213;-78
2022/07/15 02:47:20;;;;;;;1.90;1.20;;;13.50;99.90;;;;;;4214956;28;20218;-76
2022/07/15 02:49:23;;;;;;;2.80;1.00;;;13.50;99.90;;;;;;4218188;28;20207;-77
2022/07/15 02:51:25;;;;;;;1.40;1.17;;;13.50;99.90;;;;;;4219561;28;20196;-75
2022/07/15 02:53:28;;;;;;;1.83;1.03;;;13.50;99.90;;;;;;4218971;28;20237;-76
2022/07/15 02:55:31;;;;;;;2.63;1.00;;;13.40;99.90;;;;;;4218783;28;20238;-76
2022/07/15 02:57:32;;;;;;;1.63;1.00;;;13.40;99.90;;;;;;4214240;28;20223;-75
2022/07/15 02:59:36;;;;;;;1.37;0.90;;;13.40;99.90;;;;;;4213620;28;20303;-76
2022/07/15 03:01:38;;;;;;;2.27;1.10;;;13.30;99.90;;;;;;4218835;28;20194;-77
2022/07/15 03:03:39;;;;;;;2.00;1.00;;;13.30;99.90;;;;;;4214280;28;20637;-76
2022/07/15 03:05:41;;;;;;;1.77;1.17;;;13.20;99.90;;;;;;4215340;28;20209;-76
2022/07/15 03:07:43;;;;;;;2.97;0.90;;;13.20;99.90;;;;;;4210341;28;20236;-77
2022/07/15 03:09:45;;;;;;;1.90;0.97;;;13.20;99.90;;;;;;4214829;28;20292;-77
2022/07/15 03:11:47;;;;;;;2.60;1.17;;;13.10;99.90;;;;;;4216865;28;20642;-76
2022/07/15 03:13:49;;;;;;;2.53;1.00;;;13.10;99.90;;;;;;4216833;28;20319;-75
2022/07/15 03:15:52;;;;;;;0.80;0.80;;;13.10;99.90;;;;;;4216975;28;20229;-77
2022/07/15 03:17:54;;;;;;;2.90;1.00;;;13.10;99.90;;;;;;4219585;28;20709;-78
2022/07/15 03:19:56;;;;;;;1.77;1.00;;;13.10;99.90;;;;;;4218497;28;20216;-77
2022/07/15 03:21:58;;;;;;;1.67;1.10;;;13.00;99.90;;;;;;4222904;28;20211;-75
2022/07/15 03:24:00;;;;;;;1.77;1.10;;;13.00;99.90;;;;;;4218380;28;20765;-75
2022/07/15 03:26:02;;;;;;;2.87;1.03;;;13.00;99.90;;;;;;4218463;28;20212;-76
2022/07/15 03:28:04;;;;;;;1.60;1.03;;;13.00;99.90;;;;;;4222857;28;20239;-76
2022/07/15 03:30:08;;;;;;;2.20;1.20;;;12.90;99.90;;;;;;4212043;28;20216;-75
2022/07/15 03:32:11;;;;;;;3.23;1.10;;;12.90;99.90;;;;;;4220816;28;20343;-76
2022/07/15 03:34:13;;;;;;;3.07;1.23;;;12.90;99.90;;;;;;4215805;28;20303;-76
2022/07/15 03:36:15;;;;;;;2.30;1.20;;;12.90;99.90;;;;;;4212676;28;20241;-77
2022/07/15 03:38:17;;;;;;;2.43;1.27;;;12.90;99.90;;;;;;4211131;28;20263;-77
2022/07/15 04:43:42;;;;;;;2.10;1.40;;;13.10;99.90;;;;;;4214345;28;20211;-75
2022/07/15 04:45:43;;;;;;;3.00;1.63;;;13.10;99.90;;;;;;4216007;28;20209;-78
2022/07/15 04:47:45;;;;;;;2.90;1.20;;;13.10;99.90;;;;;;4214921;28;20235;-78
2022/07/15 04:52:07;;;;;;;3.80;1.67;;;13.20;99.90;;;;;;4216097;28;20222;-74
2022/07/15 04:54:10;;;;;;;4.40;1.30;;;13.20;99.90;;;;;;4216944;28;20684;-74
2022/07/15 04:56:12;;;;;;;2.23;1.30;;;13.20;99.90;;;;;;4211589;28;20304;-76
2022/07/15 04:58:14;;;;;;;3.37;1.37;;;13.30;99.90;;;;;;4214953;28;20226;-76
2022/07/15 05:00:16;;;;;;;5.00;1.40;;;13.30;99.90;;;;;;4215850;28;20212;-77
2022/07/15 05:02:18;;;;;;;1.93;1.10;;;13.30;99.90;;;;;;4218619;28;20203;-77
2022/07/15 05:04:20;;;;;;;2.83;1.23;;;13.30;99.90;;;;;;4205396;28;20209;-78
2022/07/15 05:06:22;;;;;;;1.93;1.30;;;13.40;99.90;;;;;;4214018;28;20208;-78
2022/07/15 05:08:24;;;;;;;3.63;1.30;;;13.40;99.90;;;;;;4216031;28;20645;-74
2022/07/15 05:10:28;;;;;;;2.67;1.10;;;13.40;99.90;;;;;;4217062;28;20216;-77
2022/07/15 05:12:29;;;;;;;3.93;1.30;;;13.50;99.90;;;;;;4197109;28;20304;-76
2022/07/15 05:14:31;;;;;;;2.47;1.20;;;13.50;99.90;;;;;;4217648;28;20283;-75
2022/07/15 05:16:33;;;;;;;3.43;1.60;;;13.50;99.90;;;;;;4217596;28;20233;-75
2022/07/15 05:18:35;;;;;;;2.77;1.17;;;13.60;99.90;;;;;;4214918;28;20721;-77
2022/07/15 05:20:37;;;;;;;4.30;1.40;;;13.60;99.90;;;;;;4212349;28;20209;-77
2022/07/15 05:22:39;;;;;;;2.40;1.20;;;13.60;99.90;;;;;;4213965;28;20247;-79
2022/07/15 05:24:41;;;;;;;4.23;2.00;;;13.70;99.90;;;;;;4219026;28;20215;-77
2022/07/15 05:26:44;;;;;;;4.00;1.40;;;13.70;99.90;;;;;;4212590;28;20200;-79
2022/07/15 05:28:46;;;;;;;2.13;1.10;;;13.80;99.90;;;;;;4220647;28;20593;-79
2022/07/15 05:30:48;;;;;;;4.07;1.30;;;13.80;99.90;;;;;;4215134;28;20239;-79
2022/07/15 05:32:50;;;;;;;3.30;1.20;;;13.80;99.90;;;;;;4219400;28;20686;-82
2022/07/15 05:34:52;;;;;;;3.97;1.50;;;13.90;99.90;;;;;;4212804;28;20703;-77
2022/07/15 05:36:54;;;;;;;2.10;1.07;;;13.90;99.90;;;;;;4197257;28;20230;-78
2022/07/15 05:38:56;;;;;;;2.40;1.33;;;13.90;99.90;;;;;;4195485;28;20225;-76
2022/07/15 05:40:58;;;;;;;2.57;1.33;;;13.90;99.90;;;;;;4201112;28;20248;-77
2022/07/15 05:43:01;;;;;;;3.17;1.30;;;14.00;99.90;;;;;;4195501;28;20218;-77
2022/07/15 05:45:03;;;;;;;4.97;1.60;;;14.00;99.90;;;;;;4217350;28;20284;-77
2022/07/15 05:47:05;;;;;;;1.63;1.10;;;14.10;99.90;;;;;;4197668;28;20303;-77
2022/07/15 05:49:07;;;;;;;2.83;1.33;;;14.10;99.90;;;;;;4213205;28;20238;-76
2022/07/15 05:51:09;;;;;;;4.63;1.37;;;14.20;99.90;;;;;;4197087;28;20224;-76
2022/07/15 05:53:11;;;;;;;2.67;1.30;;;14.20;99.90;;;;;;4216317;28;20212;-76
2022/07/15 05:55:13;;;;;;;3.37;1.30;;;14.30;99.90;;;;;;4211019;28;20298;-77
2022/07/15 05:57:15;;;;;;;4.93;1.20;;;14.30;99.90;;;;;;4216179;28;20402;-78
2022/07/15 05:59:18;;;;;;;3.57;1.47;;;14.40;99.90;;;;;;4213107;28;20232;-76
2022/07/15 06:01:21;;;;;;;2.63;1.20;;;14.50;99.90;;;;;;4208272;28;20213;-81
2022/07/15 06:03:23;;;;;;;4.53;1.13;;;14.50;99.90;;;;;;4210997;28;20285;-76
2022/07/15 06:05:25;;;;;;;3.63;1.17;;;14.60;99.90;;;;;;4136349;28;20213;-78
2022/07/15 06:07:27;;;;;;;5.23;1.40;;;14.60;99.90;;;;;;4204006;28;20399;-76
2022/07/15 06:09:29;;;;;;;5.13;1.50;;;14.60;99.90;;;;;;4206805;28;20217;-76
2022/07/15 06:11:31;;;;;;;3.93;1.30;;;14.70;99.90;;;;;;4189932;28;20275;-76
2022/07/15 06:13:33;;;;;;;4.80;1.60;;;14.80;99.90;;;;;;4205917;28;20288;-77
2022/07/15 06:15:36;;;;;;;2.77;1.30;;;14.80;99.90;;;;;;4206894;28;20267;-81
2022/07/15 06:17:39;;;;;;;4.37;1.37;;;14.80;99.90;;;;;;4204518;28;20234;-79
2022/07/15 06:19:40;;;;;;;4.17;1.30;;;14.90;99.90;;;;;;4211962;28;20723;-76
2022/07/15 06:21:42;;;;;;;3.43;1.37;;;14.90;99.90;;;;;;4208373;28;20218;-77
2022/07/15 06:23:44;;;;;;;5.80;2.07;;;15.00;99.90;;;;;;4212712;28;20644;-77
2022/07/15 06:25:47;;;;;;;7.17;1.50;;;15.00;99.90;;;;;;4212340;28;20208;-76
2022/07/15 06:27:49;;;;;;;5.30;1.87;;;15.00;99.90;;;;;;4210561;28;21082;-78
2022/07/15 06:29:51;;;;;;;6.83;1.77;;;15.10;99.90;;;;;;4211826;28;20241;-78
2022/07/15 06:31:54;;;;;;;4.23;1.50;;;15.20;99.90;;;;;;4215082;28;20220;-76
2022/07/15 06:33:58;;;;;;;5.37;1.50;;;15.20;99.90;;;;;;4211719;28;20726;-78
2022/07/15 06:36:00;;;;;;;6.60;1.20;;;15.30;99.90;;;;;;4214953;28;20266;-77
2022/07/15 06:38:02;;;;;;;5.17;1.47;;;15.30;99.90;;;;;;4211119;28;20257;-77
2022/07/15 06:40:06;;;;;;;3.93;1.30;;;15.30;99.90;;;;;;4213738;28;20219;-76
2022/07/15 06:42:08;;;;;;;2.23;1.13;;;15.30;99.90;;;;;;4195768;28;20240;-78
2022/07/15 06:44:10;;;;;;;8.80;1.43;;;15.30;99.90;;;;;;4208752;28;20214;-79
2022/07/15 06:46:13;;;;;;;4.07;1.23;;;15.40;99.90;;;;;;4207162;28;20240;-76
2022/07/15 06:48:16;;;;;;;4.17;1.10;;;15.40;99.90;;;;;;4197017;28;20288;-76
2022/07/15 06:50:20;;;;;;;4.83;1.00;;;15.40;99.90;;;;;;4216849;28;20928;-77
2022/07/15 06:52:21;;;;;;;3.00;1.20;;;15.40;99.90;;;;;;4219984;28;20218;-76
2022/07/15 06:54:23;;;;;;;5.80;1.27;;;15.50;99.90;;;;;;4206532;28;20214;-77
2022/07/15 06:56:25;;;;;;;5.03;1.10;;;15.50;99.90;;;;;;4195379;28;20233;-77
2022/07/15 06:58:27;;;;;;;2.60;1.10;;;15.60;99.90;;;;;;4217750;28;20603;-79
2022/07/15 07:00:29;;;;;;;7.07;1.30;;;15.60;99.90;;;;;;4210934;28;20767;-79
2022/07/15 07:02:32;;;;;;;5.40;1.30;;;15.70;99.90;;;;;;4215829;28;20215;-78
2022/07/15 07:04:35;;;;;;;4.37;1.30;;;15.80;99.90;;;;;;4217696;28;20850;-78
2022/07/15 07:06:37;;;;;;;4.00;1.13;;;15.80;99.90;;;;;;4211417;28;20294;-78
2022/07/15 07:08:40;;;;;;;4.03;1.10;;;15.90;99.90;;;;;;4215619;28;20254;-78
2022/07/15 07:10:42;;;;;;;5.10;1.30;;;16.00;99.90;;;;;;4221192;28;20756;-77
2022/07/15 07:12:44;;;;;;;2.33;1.10;;;16.10;99.90;;;;;;4195956;28;20239;-76
2022/07/15 07:14:46;;;;;;;6.77;1.30;;;16.20;99.90;;;;;;4197612;28;20243;-77
2022/07/15 07:16:48;;;;;;;4.47;1.50;;;16.30;99.90;;;;;;4210714;28;20207;-77
2022/07/15 07:18:50;;;;;;;3.27;0.80;;;16.30;99.90;;;;;;4195182;28;20234;-77
2022/07/15 07:20:54;;;;;;;4.40;1.13;;;16.40;99.90;;;;;;4214752;28;20209;-79
2022/07/15 07:22:57;;;;;;;4.83;1.03;;;16.40;99.90;;;;;;4215231;28;20273;-77
2022/07/15 07:24:59;;;;;;;4.47;1.20;;;16.50;99.90;;;;;;4213677;28;20670;-79
2022/07/15 07:27:01;;;;;;;2.50;0.90;;;16.60;99.90;;;;;;4206496;28;20617;-81
2022/07/15 07:29:03;;;;;;;2.77;1.13;;;16.60;99.90;;;;;;4192260;28;20237;-76
2022/07/15 07:31:06;;;;;;;4.30;1.00;;;16.70;99.80;;;;;;4215957;28;20823;-76
2022/07/15 07:33:08;;;;;;;4.47;1.00;;;16.70;97.80;;;;;;4210506;28;20200;-77
2022/07/15 07:35:09;;;;;;;1.97;0.90;;;16.80;97.40;;;;;;4211803;28;20236;-80
2022/07/15 07:37:13;;;;;;;2.67;0.80;;;16.90;98.00;;;;;;4212767;28;20232;-80
2022/07/15 07:39:15;;;;;;;4.77;1.00;;;16.90;96.50;;;;;;4216078;28;20193;-76
2022/07/15 07:41:17;;;;;;;3.30;0.83;;;17.00;95.50;;;;;;4195745;28;20206;-77
2022/07/15 07:43:19;;;;;;;3.70;0.90;;;17.00;95.10;;;;;;4215568;28;20278;-78
2022/07/15 07:45:21;;;;;;;3.00;0.80;;;17.00;94.40;;;;;;4217153;28;20734;-78
2022/07/15 07:47:23;;;;;;;3.10;1.00;;;17.10;93.90;;;;;;4191594;28;20292;-79
2022/07/15 07:49:26;;;;;;;3.00;0.90;;;17.10;82.60;;;;;;4213270;28;20227;-78
2022/07/15 07:51:28;;;;;;;2.17;0.70;;;17.20;75.80;;;;;;4216185;28;20205;-77
2022/07/15 07:53:31;;;;;;;2.10;0.80;;;17.20;73.50;;;;;;4194672;28;20267;-79
2022/07/15 07:55:33;;;;;;;2.73;0.90;;;17.30;72.50;;;;;;4209214;28;20204;-78
2022/07/15 07:57:36;;;;;;;1.90;0.70;;;17.30;61.20;;;;;;4209850;28;20248;-80
2022/07/15 07:59:38;;;;;;;3.77;0.80;;;17.30;64.00;;;;;;4211282;28;20232;-77
2022/07/15 08:01:40;;;;;;;1.60;0.60;;;17.40;63.30;;;;;;4217053;28;20210;-76
2022/07/15 08:03:42;;;;;;;2.00;0.70;;;17.40;63.70;;;;;;4211643;28;20254;-77
2022/07/15 08:05:44;;;;;;;2.77;0.70;;;17.50;64.00;;;;;;4214289;28;20615;-77
2022/07/15 08:07:46;;;;;;;1.40;0.70;;;17.60;62.70;;;;;;4207871;28;20227;-78
2022/07/15 08:09:49;;;;;;;4.40;0.87;;;17.60;59.80;;;;;;4211801;28;20213;-77
2022/07/15 08:11:51;;;;;;;2.57;0.80;;;17.70;55.80;;;;;;4206278;28;20231;-78
2022/07/15 08:13:53;;;;;;;2.23;0.70;;;17.80;54.40;;;;;;4214428;28;20292;-80
2022/07/15 08:15:56;;;;;;;2.50;0.47;;;17.90;50.70;;;;;;4216432;28;20705;-79
2022/07/15 08:17:58;;;;;;;1.73;0.70;;;17.90;49.20;;;;;;4213894;28;20241;-78
2022/07/15 08:20:00;;;;;;;0.83;0.57;;;18.00;49.60;;;;;;4197750;28;20585;-80
2022/07/15 08:22:02;;;;;;;1.30;0.60;;;18.10;50.20;;;;;;4216287;28;20287;-77
2022/07/15 08:24:04;;;;;;;1.63;0.67;;;18.20;48.50;;;;;;4212027;28;20262;-77
2022/07/15 08:26:10;;;;;;;3.40;0.50;;;18.20;47.80;;;;;;4209240;28;20226;-78
2022/07/15 08:28:12;;;;;;;2.27;0.60;;;18.20;48.20;;;;;;4213640;28;20565;-78
2022/07/15 08:30:14;;;;;;;2.77;0.67;;;18.30;48.50;;;;;;4212087;28;20207;-77
2022/07/15 08:32:17;;;;;;;0.57;0.50;;;18.40;47.30;;;;;;4194422;28;20258;-78
2022/07/15 08:34:19;;;;;;;2.33;0.90;;;18.50;47.80;;;;;;4209737;28;20211;-80
2022/07/15 08:36:21;;;;;;;1.33;0.73;;;18.40;46.70;;;;;;4194523;28;20298;-81
2022/07/15 08:38:23;;;;;;;1.87;0.70;;;18.50;47.40;;;;;;4212116;28;20727;-78
2022/07/15 08:40:25;;;;;;;1.93;0.80;;;18.60;47.80;;;;;;4212631;28;20212;-77
2022/07/15 08:42:28;;;;;;;1.73;0.70;;;18.70;48.20;;;;;;4205564;28;20261;-78
2022/07/15 08:44:30;;;;;;;0.97;0.57;;;18.70;47.20;;;;;;4205807;28;20211;-80
2022/07/15 08:46:34;;;;;;;1.70;0.57;;;18.90;46.90;;;;;;4189157;28;20221;-78
2022/07/15 08:48:38;;;;;;;2.03;0.80;;;18.90;45.70;;;;;;4190072;28;20240;-81
2022/07/15 08:50:42;;;;;;;1.73;0.60;;;19.20;46.20;;;;;;4211626;28;20223;-78
2022/07/15 08:52:44;;;;;;;2.97;0.67;;;19.00;45.80;;;;;;4211088;28;20240;-80
2022/07/15 08:54:47;;;;;;;2.13;0.70;;;19.10;45.40;;;;;;4211463;28;20216;-80
2022/07/15 08:56:48;;;;;;;1.93;0.60;;;19.10;44.50;;;;;;4217169;28;20247;-80
2022/07/15 08:58:52;;;;;;;1.33;0.60;;;19.20;44.20;;;;;;4210269;28;20231;-82
2022/07/15 09:00:55;;;;;;;1.30;0.63;;;19.10;43.60;;;;;;4210936;28;20296;-79
2022/07/15 09:02:59;;;;;;;1.63;0.50;;;19.20;43.60;;;;;;4199299;28;20243;-81
2022/07/15 09:05:22;;;;;;;1.73;0.90;;;19.20;43.80;;;;;;4215563;28;20569;-81
2022/07/15 09:07:27;;;;;;;2.70;0.87;;;19.20;43.40;;;;;;4208437;28;20227;-79
2022/07/15 09:09:31;;;;;;;2.53;0.73;;;19.30;42.80;;;;;;4216665;28;20244;-79
2022/07/15 09:11:33;;;;;;;1.77;0.80;;;19.30;42.40;;;;;;4197355;28;20205;-78
2022/07/15 09:13:38;;;;;;;1.37;0.50;;;19.30;42.30;;;;;;4212079;28;20283;-80
2022/07/15 09:15:41;;;;;;;1.77;0.60;;;19.40;42.90;;;;;;4211253;28;20262;-79
2022/07/15 09:17:43;;;;;;;2.40;0.97;;;19.40;42.50;;;;;;4214148;28;20311;-79
2022/07/15 09:20:00;;;;;;;2.40;0.60;;;19.50;42.60;;;;;;4196102;28;20219;-79
2022/07/15 09:22:02;;;;;;;2.10;0.60;;;19.60;42.40;;;;;;4197979;28;20234;-78
2022/07/15 09:24:18;;;;;;;1.83;0.70;;;19.60;42.10;;;;;;4223673;28;20189;-79
2022/07/15 09:26:25;;;;;;;1.87;0.60;;;19.70;42.00;;;;;;4221590;28;20204;-79
2022/07/15 09:28:39;;;;;;;1.87;0.70;;;19.70;41.80;;;;;;4209440;28;20332;-79
2022/07/15 09:37:56;;;;;;;1.80;0.60;;;19.90;41.00;;;;;;4218395;28;20221;-79
2022/07/15 09:40:00;;;;;;;2.00;0.67;;;20.00;41.00;;;;;;4220664;28;20642;-79
2022/07/15 09:42:08;;;;;;;2.80;0.70;;;20.10;40.90;;;;;;4221514;28;20614;-79
2022/07/15 09:44:12;;;;;;;1.80;0.73;;;20.10;40.70;;;;;;4217010;28;20211;-79
2022/07/15 09:46:16;;;;;;;1.27;0.57;;;20.10;40.60;;;;;;4224941;28;20200;-79
2022/07/15 09:48:18;;;;;;;2.20;0.53;;;20.20;40.80;;;;;;4218208;28;20241;-79
2022/07/15 09:50:34;;;;;;;3.87;0.50;;;20.40;40.70;;;;;;4223895;28;20209;-79
2022/07/15 09:52:47;;;;;;;1.57;0.50;;;20.40;40.60;;;;;;4220756;28;20614;-78
2022/07/15 09:54:49;;;;;;;1.53;0.50;;;20.40;40.60;;;;;;4226229;28;20274;-78
2022/07/15 09:56:55;;;;;;;3.80;0.70;;;20.50;41.00;;;;;;4226249;28;20210;-78
2022/07/15 09:58:56;;;;;;;1.43;0.50;;;20.40;41.20;;;;;;4226872;28;20236;-79
2022/07/15 10:00:59;;;;;;;2.50;0.60;;;20.40;41.00;;;;;;4212351;28;20235;-77
2022/07/15 10:03:02;;;;;;;0.90;0.43;;;20.40;41.00;;;;;;4217961;28;20236;-77
2022/07/15 10:05:05;;;;;;;1.20;0.40;;;20.40;40.80;;;;;;4222339;28;20753;-78
2022/07/15 10:07:08;;;;;;;1.43;0.63;;;20.50;41.00;;;;;;4215112;28;20469;-78
2022/07/15 10:09:10;;;;;;;2.20;0.80;;;20.60;41.20;;;;;;4199058;28;20259;-78
2022/07/15 10:11:12;;;;;;;2.13;0.67;;;20.70;41.20;;;;;;4200938;28;20302;-77
2022/07/15 10:13:39;;;;;;;2.17;0.60;;;20.70;40.70;;;;;;4205783;28;20258;-77
2022/07/15 10:15:53;;;;;;;0.37;0.33;;;20.70;40.30;;;;;;4216286;28;20213;-78
2022/07/15 10:18:17;;;;;;;1.57;0.50;;;20.80;40.80;;;;;;4219923;28;20228;-78
2022/07/15 10:20:41;;;;;;;2.30;0.77;;;20.80;40.50;;;;;;4202744;28;20304;-79
2022/07/15 10:22:55;;;;;;;1.63;0.60;;;20.80;40.20;;;;;;4213404;28;20205;-79
2022/07/15 10:25:14;;;;;;;2.37;0.70;;;20.80;39.90;;;;;;4200907;28;23944;-78
2022/07/15 10:27:48;;;;;;;2.27;0.83;;;20.80;39.20;;;;;;4216092;28;20219;-79
2022/07/15 10:29:50;;;;;;;1.43;0.60;;;20.90;38.90;;;;;;4211940;28;20219;-79
2022/07/15 10:31:58;;;;;;;3.93;0.67;;;20.90;38.70;;;;;;4196974;28;20313;-78
2022/07/15 10:34:20;;;;;;;1.27;0.60;;;20.90;38.60;;;;;;4215132;28;20210;-79
2022/07/15 10:36:25;;;;;;;0.60;0.47;;;21.00;39.00;;;;;;4194905;28;20214;-79
2022/07/15 10:38:41;;;;;;;3.00;0.47;;;21.10;39.00;;;;;;4291317;27;20606;-78
2022/07/15 10:40:59;;;;;;;2.00;0.60;;;21.00;39.10;;;;;;4270868;27;20943;-77
2022/07/15 10:43:03;;;;;;;2.53;0.60;;;21.00;38.50;;;;;;4268730;27;21150;-78
2022/07/15 10:45:10;;;;;;;1.60;0.50;;;21.10;38.80;;;;;;4273445;27;20228;-78
2022/07/15 10:47:20;;;;;;;1.10;0.53;;;21.10;38.70;;;;;;4267092;27;20566;-78
2022/07/15 10:49:33;;;;;;;1.97;0.57;;;21.20;39.00;;;;;;4247155;27;20813;-78
2022/07/15 10:51:46;;;;;;;4.80;0.60;;;21.20;38.80;;;;;;4266641;27;20710;-78
2022/07/15 10:53:51;;;;;;;2.33;0.80;;;21.30;38.80;;;;;;4270486;27;20208;-79
2022/07/15 10:55:53;;;;;;;3.03;0.70;;;21.30;38.20;;;;;;4251848;27;20741;-78
2022/07/15 10:57:56;;;;;;;2.53;0.63;;;21.30;38.50;;;;;;4270652;27;20943;-78
2022/07/15 10:59:58;;;;;;;3.23;0.77;;;21.50;38.30;;;;;;4251904;27;20213;-78
2022/07/15 11:02:20;;;;;;;1.60;0.63;;;21.40;37.30;;;;;;4271510;27;20209;-78
2022/07/15 11:04:24;;;;;;;3.67;0.70;;;21.50;37.70;;;;;;4261314;27;20195;-78
2022/07/15 11:06:26;;;;;;;2.13;0.70;;;21.60;37.50;;;;;;4272073;27;20210;-78
2022/07/15 11:08:50;;;;;;;3.10;0.60;;;21.70;37.30;;;;;;4265239;27;20276;-78
2022/07/15 11:10:52;;;;;;;4.43;0.73;;;21.70;37.20;;;;;;4251688;27;20728;-78
2022/07/15 11:13:05;;;;;;;0.80;0.50;;;21.60;36.90;;;;;;4267663;27;20200;-78
2022/07/15 11:15:12;;;;;;;1.70;0.60;;;21.70;37.90;;;;;;4268874;27;20251;-78
2022/07/15 11:17:17;;;;;;;3.40;0.90;;;21.80;37.30;;;;;;4272192;27;20763;-78
2022/07/15 11:19:20;;;;;;;1.50;0.60;;;21.80;37.20;;;;;;4270841;27;20679;-78
2022/07/15 11:21:23;;;;;;;2.87;0.80;;;21.80;37.20;;;;;;4265636;27;20207;-78
2022/07/15 11:23:31;;;;;;;1.53;0.67;;;21.60;37.10;;;;;;4249381;27;20712;-78
2022/07/15 11:25:39;;;;;;;2.37;0.70;;;21.70;37.30;;;;;;4265496;27;20223;-78
2022/07/15 11:27:41;;;;;;;0.90;0.53;;;21.60;37.60;;;;;;4266389;27;20305;-78
2022/07/15 11:29:45;;;;;;;2.80;0.60;;;21.70;37.70;;;;;;4266080;27;20647;-78
2022/07/15 11:31:49;;;;;;;1.77;0.73;;;21.70;37.60;;;;;;4273435;27;20231;-78
2022/07/15 11:33:53;;;;;;;2.23;0.70;;;21.80;37.30;;;;;;4274881;27;20670;-78
2022/07/15 11:35:57;;;;;;;1.87;0.70;;;21.90;37.70;;;;;;4256559;27;20227;-78
2022/07/15 11:38:01;;;;;;;3.60;0.80;;;22.00;37.80;;;;;;4271871;27;20267;-78
2022/07/15 11:40:10;;;;;;;2.30;0.80;;;22.30;38.30;;;;;;4270838;27;20206;-78
2022/07/15 11:44:45;;;;;;;3.03;0.60;;;22.40;36.50;;;;;;4271944;27;20631;-78
2022/07/15 11:46:49;;;;;;;2.77;0.87;;;22.60;36.40;;;;;;4277563;27;20190;-79
2022/07/15 11:48:52;;;;;;;5.20;0.60;;;22.70;36.60;;;;;;4252962;27;20322;-78
2022/07/15 11:50:55;;;;;;;2.70;0.80;;;22.50;36.20;;;;;;4258877;27;20206;-79
2022/07/15 11:52:59;;;;;;;3.63;0.90;;;22.70;36.50;;;;;;4254401;27;20216;-78
2022/07/15 11:55:06;;;;;;;1.83;0.70;;;22.60;36.20;;;;;;4257400;27;20290;-78
2022/07/15 11:57:11;;;;;;;3.70;0.70;;;22.80;36.40;;;;;;4256457;27;20581;-78
2022/07/15 11:59:15;;;;;;;1.93;0.57;;;23.00;36.00;;;;;;4240835;27;20211;-78
2022/07/15 12:01:18;;;;;;;3.73;0.80;;;23.10;35.70;;;;;;4239873;27;20246;-78
2022/07/15 12:03:20;;;;;;;1.53;0.70;;;23.30;35.50;;;;;;4256595;27;20651;-78